This is the latest recevied weather packets stored in our database for station/object M0CJS. If no packets are shown the sender has not sent any weather packets the latest 10 day(s).
| Time | Temp. | Humidity | Pressure | Rain* | Wind** | Luminosity | Snow |
|---|---|---|---|---|---|---|---|
| 1777788917 | 11.67° C | 97% | 1010.2 hPa | 0 mm | - | - | - |
| 1777780517 | 11.11° C | 97% | 1009.8 hPa | 0 mm | - | - | - |
| 1777778117 | 11.11° C | 96% | 1010 hPa | 0 mm | - | - | - |
| 1777776317 | 11.67° C | 96% | 1009.9 hPa | 0 mm | - | - | - |
| 1777771516 | 12.22° C | 97% | 1010.4 hPa | 0 mm | - | - | - |
| 1777764936 | 12.22° C | 97% | 1011.4 hPa | 0.25 mm | - | - | - |
| 1777761916 | 12.22° C | 95% | 1011.6 hPa | 1.27 mm | - | - | - |
| 1777760716 | 12.22° C | 95% | 1011.9 hPa | 0.51 mm | - | - | - |
| 1777760116 | 12.22° C | 95% | 1012.1 hPa | 0.25 mm | - | - | - |
| 1777758316 | 12.78° C | 95% | 1012.1 hPa | 0 mm | - | - | - |
| 1777756516 | 12.78° C | 95% | 1012.5 hPa | 0 mm | - | - | - |
| 1777749916 | 13.89° C | 92% | 1013.2 hPa | 4.32 mm | - | - | - |
| 1777749318 | 13.89° C | 91% | 1013.5 hPa | 4.83 mm | - | - | - |
| 1777739716 | 18.33° C | 64% | 1014.1 hPa | 0 mm | - | - | - |
| 1777737918 | 19.44° C | 62% | 1014.5 hPa | 0 mm | - | - | - |
| 1777736117 | 19.44° C | 61% | 1014.8 hPa | 0 mm | - | - | - |
| 1777733117 | 20.56° C | 54% | 1015.6 hPa | 0 mm | - | - | - |
| 1777730117 | 20° C | 52% | 1016.3 hPa | 0 mm | - | - | - |
| 1777729517 | 20° C | 52% | 1016.4 hPa | 0 mm | - | - | - |
| 1777727717 | 20° C | 55% | 1017 hPa | 0 mm | - | - | - |
| 1777724717 | 20° C | 57% | 1017 hPa | 0 mm | - | - | - |
| 1777723517 | 20° C | 56% | 1017.5 hPa | 0 mm | - | - | - |
| 1777722317 | 19.44° C | 60% | 1017.5 hPa | 0 mm | - | - | - |
| 1777721117 | 18.89° C | 60% | 1017.8 hPa | 0 mm | - | - | - |
| 1777719917 | 18.89° C | 63% | 1018.3 hPa | 0 mm | - | - | - |
* Rain latest hour (hover to see other rain measurements)
** Current wind speed in m/s (hover to see current wind gust speed)